createdAt,value
2022-08-10T00:01:52.385Z,99.90
2022-08-10T00:04:22.406Z,99.90
2022-08-10T00:06:53.084Z,99.90
2022-08-10T00:09:21.529Z,99.90
2022-08-10T00:11:49.957Z,99.90
2022-08-10T00:14:18.821Z,99.90
2022-08-10T00:16:48.895Z,99.90
2022-08-10T00:19:18.098Z,99.90
2022-08-10T00:21:46.795Z,99.90
2022-08-10T00:24:15.237Z,99.90
2022-08-10T00:27:49.875Z,99.90
2022-08-10T00:29:32.368Z,99.90
2022-08-10T00:32:02.807Z,99.90
2022-08-10T00:34:32.425Z,99.90
2022-08-10T00:37:01.233Z,99.90
2022-08-10T00:39:30.575Z,99.90
2022-08-10T00:42:07.507Z,99.90
2022-08-10T00:44:37.491Z,99.90
2022-08-10T00:47:21.421Z,99.90
2022-08-10T00:49:56.741Z,99.90
2022-08-10T00:52:25.748Z,99.90
2022-08-10T00:54:54.712Z,99.90
2022-08-10T00:57:22.978Z,99.90
2022-08-10T00:59:58.645Z,99.90
2022-08-10T01:02:30.815Z,99.90
2022-08-10T01:05:02.363Z,99.90
2022-08-10T01:07:58.712Z,99.90
2022-08-10T01:10:35.237Z,99.90
2022-08-10T01:13:11.255Z,99.90
2022-08-10T01:15:49.986Z,99.90
2022-08-10T01:18:23.992Z,99.90
2022-08-10T01:21:11.495Z,99.90
2022-08-10T01:24:06.817Z,99.90
2022-08-10T01:26:50.737Z,99.90
2022-08-10T01:30:04.483Z,99.90
2022-08-10T01:32:43.308Z,99.90
2022-08-10T01:35:16.481Z,99.90
2022-08-10T01:37:52.630Z,99.90
2022-08-10T01:40:26.135Z,99.90
2022-08-10T01:42:59.737Z,99.90
2022-08-10T01:45:45.224Z,99.90
2022-08-10T01:48:31.512Z,99.90
2022-08-10T01:51:10.445Z,99.90
2022-08-10T01:53:44.444Z,99.90
2022-08-10T01:56:15.130Z,99.90
2022-08-10T01:58:45.227Z,99.90
2022-08-10T02:01:20.074Z,99.90
2022-08-10T02:04:05.076Z,99.90
2022-08-10T02:06:38.112Z,99.90
2022-08-10T02:09:08.421Z,99.90
2022-08-10T02:12:05.786Z,99.90
2022-08-10T02:14:34.118Z,99.90
2022-08-10T02:17:04.841Z,99.90
2022-08-10T02:19:36.632Z,99.90
2022-08-10T02:22:36.771Z,99.90
2022-08-10T02:24:55.516Z,99.90
2022-08-10T02:27:25.985Z,99.90
2022-08-10T02:29:56.851Z,99.90
2022-08-10T02:32:36.170Z,99.90
2022-08-10T02:35:22.284Z,99.90
2022-08-10T02:37:54.072Z,99.90
2022-08-10T02:45:00.911Z,99.90
2022-08-10T02:45:23.257Z,99.90
2022-08-10T02:46:18.267Z,99.90
2022-08-10T02:48:55.722Z,99.90
2022-08-10T02:52:07.075Z,99.90
2022-08-10T02:54:25.463Z,99.90
2022-08-10T02:56:59.563Z,99.90
2022-08-10T02:59:39.502Z,99.90
2022-08-10T03:02:13.143Z,99.90
2022-08-10T03:04:55.441Z,99.90
2022-08-10T03:07:43.495Z,99.90
2022-08-10T03:10:16.242Z,99.90
2022-08-10T03:12:51.068Z,99.90
2022-08-10T03:15:21.742Z,99.90
2022-08-10T03:17:57.665Z,99.90
2022-08-10T03:20:37.728Z,99.90
2022-08-10T03:23:13.439Z,99.90
2022-08-10T03:25:54.298Z,99.90
2022-08-10T03:28:24.746Z,99.90
2022-08-10T03:30:53.852Z,99.90
2022-08-10T03:33:23.271Z,99.90
2022-08-10T03:36:41.560Z,99.90
2022-08-10T03:38:46.025Z,99.90
2022-08-10T03:41:16.720Z,99.90
2022-08-10T03:43:47.913Z,99.90
2022-08-10T03:46:19.929Z,99.90
2022-08-10T03:48:51.291Z,99.90
2022-08-10T03:51:21.124Z,99.90
2022-08-10T03:54:05.289Z,99.90
2022-08-10T03:56:40.134Z,99.90
2022-08-10T03:59:11.231Z,99.90
2022-08-10T04:02:43.272Z,99.90
2022-08-10T04:04:28.430Z,99.90
2022-08-10T04:06:58.118Z,99.90
2022-08-10T04:09:54.304Z,99.90
2022-08-10T04:12:20.567Z,99.90
2022-08-10T04:14:50.791Z,99.90
2022-08-10T04:18:04.864Z,99.90
2022-08-10T04:20:14.987Z,99.90
2022-08-10T04:22:45.030Z,99.90
2022-08-10T04:25:17.795Z,99.90
2022-08-10T04:27:48.814Z,99.90
2022-08-10T04:30:17.202Z,99.90
2022-08-10T04:32:48.544Z,99.90
2022-08-10T04:35:20.015Z,99.90
2022-08-10T04:37:50.633Z,99.90
2022-08-10T04:40:28.495Z,99.90
2022-08-10T04:43:02.335Z,99.90
2022-08-10T04:45:48.647Z,99.90
2022-08-10T04:48:42.717Z,99.90
2022-08-10T04:51:11.060Z,99.90
2022-08-10T04:54:02.691Z,99.90
2022-08-10T04:56:37.859Z,99.90
2022-08-10T04:59:07.315Z,99.90
2022-08-10T05:02:21.508Z,99.90
2022-08-10T05:04:36.516Z,99.90
2022-08-10T05:07:11.343Z,99.90
2022-08-10T05:10:04.226Z,99.90
2022-08-10T05:12:37.956Z,99.90
2022-08-10T05:15:08.881Z,99.90
2022-08-10T05:17:38.734Z,99.90
2022-08-10T05:20:09.626Z,99.90
2022-08-10T05:22:40.849Z,99.90
2022-08-10T05:25:11.162Z,99.90
2022-08-10T05:27:41.850Z,99.90
2022-08-10T05:30:13.533Z,99.90
2022-08-10T05:32:57.164Z,99.90
2022-08-10T05:35:26.681Z,99.90
2022-08-10T05:38:10.782Z,99.90
2022-08-10T05:40:46.884Z,99.90
2022-08-10T05:43:19.414Z,99.90
2022-08-10T05:46:19.209Z,99.90
2022-08-10T05:48:58.146Z,99.90
2022-08-10T05:51:28.398Z,99.90
2022-08-10T05:54:02.075Z,99.90
2022-08-10T05:56:53.850Z,99.90
2022-08-10T06:00:33.915Z,99.90
2022-08-10T06:02:33.641Z,99.90
2022-08-10T06:05:09.305Z,99.90
2022-08-10T06:07:42.519Z,99.90
2022-08-10T06:10:14.618Z,99.90
2022-08-10T06:13:26.838Z,99.90
2022-08-10T06:16:07.604Z,99.90
2022-08-10T06:18:36.771Z,99.90
2022-08-10T06:21:05.831Z,99.90
2022-08-10T06:23:34.589Z,99.90
2022-08-10T06:26:11.332Z,99.90
2022-08-10T06:28:58.203Z,99.90
2022-08-10T06:31:36.139Z,99.90
2022-08-10T06:34:22.130Z,99.90
2022-08-10T06:36:51.324Z,99.90
2022-08-10T06:39:36.100Z,99.90
2022-08-10T06:42:15.995Z,99.90
2022-08-10T06:44:52.789Z,99.90
2022-08-10T06:47:25.496Z,99.90
2022-08-10T06:50:00.055Z,99.90
2022-08-10T06:52:33.981Z,99.90
2022-08-10T06:55:05.153Z,99.90
2022-08-10T06:57:38.073Z,99.90
2022-08-10T07:00:08.681Z,99.90
2022-08-10T07:02:48.112Z,99.90
2022-08-10T07:05:21.341Z,99.90
2022-08-10T07:07:52.486Z,99.90
2022-08-10T07:10:22.452Z,99.90
2022-08-10T07:12:54.111Z,99.90
2022-08-10T07:15:23.488Z,99.90
2022-08-10T07:18:15.286Z,99.90
2022-08-10T07:20:45.315Z,99.90
2022-08-10T07:23:56.905Z,99.90
2022-08-10T07:26:04.255Z,99.90
2022-08-10T07:28:34.941Z,99.90
2022-08-10T07:31:04.079Z,99.90
2022-08-10T07:33:56.327Z,99.90
2022-08-10T07:36:26.236Z,99.90
2022-08-10T07:38:57.163Z,99.90
2022-08-10T07:41:32.144Z,99.90
2022-08-10T07:44:03.253Z,99.90
2022-08-10T07:46:34.594Z,99.90
2022-08-10T07:49:15.317Z,99.90
2022-08-10T07:51:54.967Z,99.90
2022-08-10T07:54:25.707Z,99.90
2022-08-10T07:56:56.978Z,99.90
2022-08-10T07:59:33.306Z,99.90
2022-08-10T08:02:04.319Z,99.90
2022-08-10T08:04:35.319Z,99.90
2022-08-10T08:07:04.626Z,99.90
2022-08-10T08:09:34.857Z,99.90
2022-08-10T08:12:04.081Z,99.90
2022-08-10T08:14:34.560Z,99.90
2022-08-10T08:17:02.879Z,99.90
2022-08-10T08:19:37.397Z,99.90
2022-08-10T08:24:07.517Z,99.90
2022-08-10T08:25:03.431Z,99.90
2022-08-10T08:27:32.656Z,99.90
2022-08-10T08:30:03.009Z,99.90
2022-08-10T08:32:33.402Z,99.90
2022-08-10T08:35:04.915Z,99.90
2022-08-10T08:38:31.279Z,99.90
2022-08-10T08:40:26.227Z,99.90
2022-08-10T08:43:31.636Z,99.90
2022-08-10T08:46:38.477Z,99.90
2022-08-10T08:50:04.907Z,99.90
2022-08-10T08:52:36.469Z,99.90
2022-08-10T08:55:52.412Z,99.90
2022-08-10T08:58:28.661Z,99.90
2022-08-10T09:01:19.015Z,99.90
2022-08-10T09:04:19.776Z,99.90
2022-08-10T09:07:59.522Z,99.90
2022-08-10T09:10:16.169Z,99.90
2022-08-10T09:12:52.843Z,99.90
2022-08-10T09:15:39.492Z,99.90
2022-08-10T09:18:13.958Z,99.90
2022-08-10T09:20:49.407Z,99.90
2022-08-10T09:24:04.212Z,99.90
2022-08-10T09:26:20.891Z,99.90
2022-08-10T09:29:12.302Z,99.90
2022-08-10T09:32:54.927Z,99.90
2022-08-10T09:36:22.799Z,99.90
2022-08-10T09:38:02.410Z,99.90
2022-08-10T09:40:59.695Z,99.90
2022-08-10T09:43:47.239Z,99.90
2022-08-10T09:46:27.196Z,99.90
2022-08-10T09:49:04.565Z,99.20
2022-08-10T09:51:45.920Z,98.50
2022-08-10T09:54:29.543Z,99.90
2022-08-10T09:57:44.930Z,99.60
2022-08-10T10:00:05.474Z,98.90
2022-08-10T10:02:43.347Z,97.00
2022-08-10T10:05:26.352Z,99.50
2022-08-10T10:08:01.905Z,98.30
2022-08-10T10:10:44.994Z,99.00
2022-08-10T10:13:54.658Z,96.60
2022-08-10T10:16:34.830Z,94.70
2022-08-10T10:19:17.414Z,96.40
2022-08-10T10:21:56.156Z,95.10
2022-08-10T10:24:34.498Z,91.40
2022-08-10T10:27:16.216Z,95.40
2022-08-10T10:29:57.319Z,91.20
2022-08-10T10:32:40.650Z,92.70
2022-08-10T10:35:17.658Z,93.60
2022-08-10T10:38:01.174Z,92.70
2022-08-10T10:40:41.494Z,91.10
2022-08-10T10:43:27.379Z,94.40
2022-08-10T10:46:05.628Z,88.60
2022-08-10T10:48:43.589Z,87.90
2022-08-10T10:51:19.822Z,87.30
2022-08-10T10:53:58.497Z,90.00
2022-08-10T10:56:36.665Z,90.60
2022-08-10T10:59:53.759Z,86.30
2022-08-10T11:02:18.176Z,90.20
2022-08-10T11:04:59.064Z,89.80
2022-08-10T11:07:35.194Z,82.80
2022-08-10T11:10:33.876Z,90.50
2022-08-10T11:14:26.970Z,81.70
2022-08-10T11:16:07.507Z,89.20
2022-08-10T11:18:53.001Z,78.00
2022-08-10T11:21:36.616Z,87.10
2022-08-10T11:24:48.163Z,78.60
2022-08-10T11:27:05.296Z,87.00
2022-08-10T11:29:41.486Z,85.60
2022-08-10T11:32:21.295Z,89.50
2022-08-10T11:35:11.057Z,89.20
2022-08-10T11:38:30.924Z,76.50
2022-08-10T11:40:45.946Z,77.60
2022-08-10T11:43:21.944Z,86.60
2022-08-10T11:45:55.447Z,85.20
2022-08-10T11:48:53.658Z,81.00
2022-08-10T11:51:31.687Z,76.80
2022-08-10T11:54:09.067Z,80.90
2022-08-10T11:56:48.604Z,80.50
2022-08-10T11:59:38.697Z,78.50
2022-08-10T12:02:09.265Z,82.10
2022-08-10T12:04:41.697Z,81.10
2022-08-10T12:10:02.499Z,74.60
2022-08-10T12:10:13.156Z,72.00
2022-08-10T12:12:47.806Z,80.80
2022-08-10T12:15:22.738Z,77.90
2022-08-10T12:17:55.912Z,80.90
2022-08-10T12:20:30.226Z,75.50
2022-08-10T12:23:03.093Z,79.10
2022-08-10T12:25:57.026Z,70.30
2022-08-10T12:28:50.545Z,77.80
2022-08-10T12:31:24.378Z,78.30
2022-08-10T12:34:04.729Z,82.20
2022-08-10T12:36:39.228Z,73.30
2022-08-10T12:39:16.775Z,83.00
2022-08-10T12:41:53.125Z,77.10
2022-08-10T12:44:41.743Z,78.00
2022-08-10T12:47:19.334Z,76.00
2022-08-10T12:50:13.786Z,79.40
2022-08-10T12:52:52.582Z,75.20
2022-08-10T12:55:22.355Z,79.00
2022-08-10T12:57:55.128Z,76.40
2022-08-10T13:00:31.295Z,72.30
2022-08-10T13:03:01.632Z,77.20
2022-08-10T13:05:31.444Z,76.90
2022-08-10T13:08:39.866Z,75.30
2022-08-10T13:11:26.282Z,80.10
2022-08-10T13:14:07.857Z,75.10
2022-08-10T13:16:38.084Z,74.30
2022-08-10T13:19:08.136Z,76.50
2022-08-10T13:21:38.698Z,78.10
2022-08-10T13:24:11.954Z,74.50
2022-08-10T13:27:10.910Z,77.00
2022-08-10T13:29:37.223Z,73.70
2022-08-10T13:32:10.776Z,72.20
2022-08-10T13:34:45.767Z,72.70
2022-08-10T13:37:18.140Z,72.10
2022-08-10T13:39:58.743Z,76.40
2022-08-10T13:42:38.930Z,68.50
2022-08-10T13:45:19.145Z,78.70
2022-08-10T13:47:51.925Z,79.30
2022-08-10T13:50:33.516Z,74.70
2022-08-10T13:53:13.992Z,69.70
2022-08-10T13:55:54.418Z,71.40
2022-08-10T13:58:27.514Z,69.20
2022-08-10T14:00:59.201Z,74.70
2022-08-10T14:03:29.549Z,70.10
2022-08-10T14:05:59.746Z,80.20
2022-08-10T14:08:31.319Z,79.30
2022-08-10T14:11:11.618Z,77.80
2022-08-10T14:13:45.461Z,74.70
2022-08-10T14:16:16.754Z,75.80
2022-08-10T14:18:46.179Z,79.20
2022-08-10T14:21:15.815Z,78.30
2022-08-10T14:23:52.992Z,79.60
2022-08-10T14:26:26.076Z,74.40
2022-08-10T14:28:58.293Z,74.40
2022-08-10T14:31:37.981Z,75.10
2022-08-10T14:34:09.572Z,72.40
2022-08-10T14:36:44.081Z,74.70
2022-08-10T14:39:20.693Z,76.80
2022-08-10T14:42:02.801Z,73.80
2022-08-10T14:44:43.031Z,78.10
2022-08-10T14:47:53.906Z,76.60
2022-08-10T14:50:05.403Z,74.20
2022-08-10T14:52:44.006Z,76.00
2022-08-10T14:55:19.637Z,75.20
2022-08-10T14:58:16.459Z,72.20
2022-08-10T15:00:42.793Z,72.10
2022-08-10T15:03:59.425Z,74.90
2022-08-10T15:06:18.018Z,74.70
2022-08-10T15:08:48.909Z,75.50
2022-08-10T15:12:15.348Z,77.40
2022-08-10T15:14:38.781Z,74.30
2022-08-10T15:16:58.404Z,76.50
2022-08-10T15:20:04.590Z,77.50
2022-08-10T15:22:42.265Z,72.90
2022-08-10T15:25:19.569Z,72.40
2022-08-10T15:27:57.319Z,76.50
2022-08-10T15:30:32.459Z,75.40
2022-08-10T15:34:01.954Z,74.20
2022-08-10T15:36:38.158Z,75.50
2022-08-10T15:39:16.656Z,72.50
2022-08-10T15:42:03.861Z,72.50
2022-08-10T15:44:39.216Z,75.60
2022-08-10T15:47:12.269Z,70.60
2022-08-10T15:49:51.789Z,70.40
2022-08-10T15:53:00.082Z,72.20
2022-08-10T15:55:43.918Z,73.20
2022-08-10T15:58:10.373Z,72.60
2022-08-10T16:00:42.072Z,75.00
2022-08-10T16:03:17.253Z,73.50
2022-08-10T16:06:01.737Z,74.20
2022-08-10T16:08:56.421Z,74.30
2022-08-10T16:11:38.816Z,75.00
2022-08-10T16:14:14.524Z,75.30
2022-08-10T16:16:47.201Z,72.90
2022-08-10T16:19:23.864Z,74.00
2022-08-10T16:22:02.386Z,73.90
2022-08-10T16:24:38.510Z,71.70
2022-08-10T16:27:08.490Z,73.60
2022-08-10T16:29:54.466Z,73.90
2022-08-10T16:32:26.627Z,74.60
2022-08-10T16:34:56.485Z,76.40
2022-08-10T16:37:57.404Z,78.80
2022-08-10T16:40:24.047Z,76.30
2022-08-10T16:42:53.593Z,78.00
2022-08-10T16:45:30.031Z,74.20
2022-08-10T16:47:59.831Z,75.60
2022-08-10T16:50:30.180Z,76.20
2022-08-10T16:53:03.699Z,76.90
2022-08-10T16:55:47.396Z,80.10
2022-08-10T16:58:20.666Z,78.60
2022-08-10T17:00:51.542Z,78.30
2022-08-10T17:04:07.930Z,76.60
2022-08-10T17:06:22.384Z,77.00
2022-08-10T17:08:54.001Z,77.00
2022-08-10T17:11:31.368Z,78.50
2022-08-10T17:14:01.840Z,77.00
2022-08-10T17:16:36.516Z,79.50
2022-08-10T17:19:11.674Z,78.10
2022-08-10T17:21:51.391Z,80.30
2022-08-10T17:24:25.182Z,80.20
2022-08-10T17:26:58.232Z,80.90
2022-08-10T17:29:58.859Z,80.60
2022-08-10T17:32:28.890Z,81.30
2022-08-10T17:34:59.949Z,81.00
2022-08-10T17:37:34.298Z,82.10
2022-08-10T17:40:06.908Z,83.70
2022-08-10T17:42:37.276Z,82.50
2022-08-10T17:45:07.715Z,82.40
2022-08-10T17:47:36.457Z,81.80
2022-08-10T17:50:05.182Z,80.80
2022-08-10T17:52:34.292Z,81.80
2022-08-10T17:55:05.955Z,83.40
2022-08-10T17:57:39.063Z,82.00
2022-08-10T18:00:14.433Z,82.60
2022-08-10T18:02:46.203Z,82.80
2022-08-10T18:05:15.533Z,84.40
2022-08-10T18:07:48.749Z,85.40
2022-08-10T18:10:20.436Z,86.70
2022-08-10T18:12:52.524Z,87.80
2022-08-10T18:15:24.585Z,87.60
2022-08-10T18:17:59.123Z,85.20
2022-08-10T18:20:34.965Z,86.00
2022-08-10T18:23:04.028Z,85.70
2022-08-10T18:25:36.082Z,84.90
2022-08-10T18:28:12.297Z,87.00
2022-08-10T18:30:48.128Z,86.70
2022-08-10T18:33:18.546Z,85.10
2022-08-10T18:35:47.410Z,87.00
2022-08-10T18:38:17.334Z,91.40
2022-08-10T18:40:53.968Z,90.30
2022-08-10T18:44:06.977Z,88.80
2022-08-10T18:46:23.054Z,87.50
2022-08-10T18:48:54.822Z,89.50
2022-08-10T18:51:27.368Z,91.60
2022-08-10T18:54:01.306Z,92.80
2022-08-10T18:56:45.363Z,93.20
2022-08-10T18:59:39.530Z,89.40
2022-08-10T19:03:11.118Z,88.40
2022-08-10T19:06:00.240Z,88.90
2022-08-10T19:08:49.441Z,90.10
2022-08-10T19:11:26.278Z,88.80
2022-08-10T19:14:04.498Z,88.40
2022-08-10T19:16:47.944Z,91.60
2022-08-10T19:19:30.267Z,90.20
2022-08-10T19:22:07.577Z,89.00
2022-08-10T19:24:45.773Z,90.20
2022-08-10T19:27:29.280Z,91.30
2022-08-10T19:30:09.757Z,88.60
2022-08-10T19:32:56.054Z,90.70
2022-08-10T19:35:34.547Z,92.00
2022-08-10T19:38:33.164Z,92.00
2022-08-10T19:41:11.896Z,91.30
2022-08-10T19:44:01.762Z,90.20
2022-08-10T19:46:40.909Z,91.50
2022-08-10T19:49:23.776Z,90.20
2022-08-10T19:51:57.682Z,89.80
2022-08-10T19:54:37.201Z,91.20
2022-08-10T19:57:12.340Z,92.00
2022-08-10T20:00:17.100Z,93.10
2022-08-10T20:02:49.051Z,94.40
2022-08-10T20:05:29.564Z,94.20
2022-08-10T20:08:05.743Z,92.00
2022-08-10T20:10:42.183Z,92.80
2022-08-10T20:13:16.389Z,93.40
2022-08-10T20:15:49.248Z,94.30
2022-08-10T20:18:25.180Z,92.60
2022-08-10T20:21:01.231Z,93.70
2022-08-10T20:23:36.744Z,93.80
2022-08-10T20:26:12.595Z,94.80
2022-08-10T20:28:44.745Z,94.50
2022-08-10T20:31:17.505Z,93.80
2022-08-10T20:34:01.333Z,93.90
2022-08-10T20:36:34.561Z,94.40
2022-08-10T20:39:17.637Z,95.40
2022-08-10T20:42:07.737Z,94.40
2022-08-10T20:44:57.784Z,94.70
2022-08-10T20:47:37.500Z,96.40
2022-08-10T20:50:30.906Z,96.40
2022-08-10T20:53:04.298Z,96.80
2022-08-10T20:55:47.828Z,97.20
2022-08-10T20:58:35.976Z,96.40
2022-08-10T21:01:17.299Z,97.00
2022-08-10T21:04:13.505Z,97.40
2022-08-10T21:07:22.139Z,97.80
2022-08-10T21:10:07.283Z,97.70
2022-08-10T21:12:51.536Z,97.50
2022-08-10T21:15:29.282Z,97.60
2022-08-10T21:18:20.586Z,97.50
2022-08-10T21:23:52.207Z,97.70
2022-08-10T21:25:42.191Z,97.60
2022-08-10T21:26:41.202Z,97.70
2022-08-10T21:29:39.664Z,98.50
2022-08-10T21:32:22.198Z,98.00
2022-08-10T21:35:02.585Z,98.70
2022-08-10T21:37:40.300Z,98.50
2022-08-10T21:41:19.086Z,98.60
2022-08-10T21:44:08.499Z,98.90
2022-08-10T21:47:06.316Z,99.20
2022-08-10T21:50:07.298Z,98.80
2022-08-10T21:53:03.958Z,98.10
2022-08-10T21:56:02.919Z,98.80
2022-08-10T21:58:55.195Z,99.40
2022-08-10T22:01:53.306Z,99.80
2022-08-10T22:04:40.168Z,99.90
2022-08-10T22:07:36.510Z,99.90
2022-08-10T22:10:25.692Z,99.90
2022-08-10T22:13:12.822Z,99.90
2022-08-10T22:16:10.669Z,99.90
2022-08-10T22:19:03.718Z,99.90
2022-08-10T22:22:02.377Z,99.90
2022-08-10T22:25:04.897Z,99.90
2022-08-10T22:28:02.647Z,99.90
2022-08-10T22:31:28.036Z,99.90
2022-08-10T22:34:15.448Z,99.90
2022-08-10T22:37:17.469Z,99.90
2022-08-10T22:40:18.542Z,99.90
2022-08-10T22:43:09.880Z,99.90
2022-08-10T22:46:02.749Z,99.90
2022-08-10T22:48:48.410Z,99.90
2022-08-10T22:51:23.852Z,99.90
2022-08-10T22:54:30.463Z,99.90
2022-08-10T22:57:18.980Z,99.90
2022-08-10T22:59:47.891Z,99.90
2022-08-10T23:02:33.251Z,99.90
2022-08-10T23:05:10.335Z,99.90
2022-08-10T23:07:50.303Z,99.90
2022-08-10T23:10:21.842Z,99.90
2022-08-10T23:12:56.617Z,99.90
2022-08-10T23:15:48.721Z,99.90
2022-08-10T23:18:50.992Z,99.90
2022-08-10T23:21:20.687Z,99.90
2022-08-10T23:23:54.951Z,99.90
2022-08-10T23:26:26.357Z,99.90
2022-08-10T23:29:00.951Z,99.90
2022-08-10T23:32:01.170Z,99.90
2022-08-10T23:34:32.396Z,99.90
2022-08-10T23:37:02.352Z,99.90
2022-08-10T23:39:38.164Z,99.90
2022-08-10T23:42:09.491Z,99.90
2022-08-10T23:44:42.755Z,99.90
2022-08-10T23:47:13.509Z,99.90
2022-08-10T23:49:44.055Z,99.90
2022-08-10T23:52:14.900Z,99.90
2022-08-10T23:54:50.120Z,99.90
2022-08-10T23:57:21.376Z,99.90
2022-08-10T23:59:56.918Z,99.90
